Terminal Aerodrome Forecast
Issued by NWS

Home | Current Version | Previous Version | Text Only | Print | Product List | Glossary On
Versions: 1 2 3 4 5 6 7 8 9 10 11 12
000
FTUS42 KMLB 262300
TAFTIX
TAF
KTIX 262329Z 2700/2724 02005KT P6SM OVC040
      TEMPO 2709/2713 5SM BR BKN010
     FM271500 07007KT P6SM BKN030
      AMD NOT SKED 2702/2712=

USA.gov is the U.S. government's official web portal to all federal, state and local government web resources and services.